Terminal Aerodrome Forecast
Issued by NWS Upton, NY

Home | Current Version | Previous Version | Text Only | Print | Product List | Glossary On
Versions: 1 2 3 4 5 6 7 8 9 10 11 12 13 14 15 16 17 18 19 20 21 22 23 24 25 26 27
000
FTUS41 KOKX 030826 AAA
TAFBDR
TAF AMD
KBDR 030826Z 0308/0406 VRB03KT 4SM -RA BR SCT035 BKN070
      TEMPO 0308/0309 BKN025
     FM030900 VRB05KT 3SM RA BR SCT005 BKN015
      TEMPO 0309/0313 2SM +RA BR BKN005
     FM031300 06009KT 4SM -RA BR OVC015
     FM031700 05010KT 6SM -DZ BR BKN010 OVC040
     FM040000 VRB03KT P6SM BKN025=

USA.gov is the U.S. government's official web portal to all federal, state and local government web resources and services.